createdAt,value
2018-08-12T00:00:43.110Z,3.53
2018-08-12T00:03:11.547Z,3.10
2018-08-12T00:05:40.031Z,6.50
2018-08-12T00:08:08.492Z,4.60
2018-08-12T00:10:36.922Z,4.80
2018-08-12T00:13:05.565Z,4.47
2018-08-12T00:15:34.070Z,5.67
2018-08-12T00:18:02.661Z,5.23
2018-08-12T00:20:31.144Z,6.97
2018-08-12T00:22:59.569Z,6.10
2018-08-12T00:25:28.013Z,6.30
2018-08-12T00:27:56.501Z,4.53
2018-08-12T00:30:24.917Z,5.43
2018-08-12T00:32:53.370Z,5.67
2018-08-12T00:35:21.814Z,7.33
2018-08-12T00:37:50.234Z,5.13
2018-08-12T00:40:18.632Z,5.93
2018-08-12T00:42:47.417Z,10.57
2018-08-12T00:45:18.445Z,7.33
2018-08-12T00:47:47.115Z,7.33
2018-08-12T00:50:16.429Z,7.47
2018-08-12T00:52:44.943Z,8.33
2018-08-12T00:55:16.051Z,4.90
2018-08-12T00:57:45.257Z,4.90
2018-08-12T01:00:15.623Z,7.13
2018-08-12T01:02:44.057Z,5.05
2018-08-12T01:05:14.241Z,6.67
2018-08-12T01:07:43.233Z,5.93
2018-08-12T01:10:12.297Z,3.73
2018-08-12T01:12:40.793Z,5.10
2018-08-12T01:15:13.435Z,6.60
2018-08-12T01:17:42.074Z,4.77
2018-08-12T01:20:12.759Z,5.50
2018-08-12T01:22:41.239Z,4.67
2018-08-12T01:25:10.532Z,5.67
2018-08-12T01:27:38.982Z,3.00
2018-08-12T01:30:14.562Z,6.80
2018-08-12T01:32:43.720Z,3.20
2018-08-12T01:35:12.952Z,4.57
2018-08-12T01:37:42.153Z,3.50
2018-08-12T01:40:12.389Z,3.87
2018-08-12T01:42:41.500Z,3.60
2018-08-12T01:45:11.542Z,3.43
2018-08-12T01:47:39.913Z,5.37
2018-08-12T01:50:09.039Z,4.53
2018-08-12T01:52:37.402Z,4.40
2018-08-12T01:55:06.184Z,4.43
2018-08-12T01:57:34.803Z,4.87
2018-08-12T02:00:03.169Z,3.37
2018-08-12T02:02:31.565Z,5.23
2018-08-12T02:04:59.978Z,3.67
2018-08-12T02:07:28.323Z,3.97
2018-08-12T02:09:56.669Z,4.47
2018-08-12T02:12:25.050Z,2.80
2018-08-12T02:14:53.374Z,4.33
2018-08-12T02:17:21.798Z,3.97
2018-08-12T02:19:50.318Z,4.23
2018-08-12T02:22:18.700Z,3.90
2018-08-12T02:24:47.101Z,5.20
2018-08-12T02:27:15.480Z,4.17
2018-08-12T02:29:43.843Z,3.20
2018-08-12T02:32:12.241Z,4.47
2018-08-12T02:34:40.677Z,3.47
2018-08-12T02:37:09.167Z,5.50
2018-08-12T02:39:37.544Z,4.83
2018-08-12T02:42:05.970Z,3.47
2018-08-12T02:44:34.333Z,2.90
2018-08-12T02:47:02.754Z,2.97
2018-08-12T02:49:31.146Z,3.03
2018-08-12T02:51:59.499Z,3.17
2018-08-12T02:54:27.867Z,2.90
2018-08-12T02:56:56.249Z,3.90
2018-08-12T02:59:24.662Z,3.73
2018-08-12T03:01:53.444Z,3.27
2018-08-12T03:04:21.829Z,4.80
2018-08-12T03:06:50.280Z,5.47
2018-08-12T03:09:18.665Z,3.70
2018-08-12T03:11:47.031Z,4.30
2018-08-12T03:14:15.480Z,4.67
2018-08-12T03:16:43.842Z,3.10
2018-08-12T03:19:12.202Z,3.63
2018-08-12T03:21:41.605Z,4.50
2018-08-12T03:24:09.977Z,2.97
2018-08-12T03:26:38.358Z,4.40
2018-08-12T03:29:06.706Z,7.10
2018-08-12T03:31:35.092Z,7.53
2018-08-12T03:34:03.464Z,8.10
2018-08-12T03:36:31.931Z,5.97
2018-08-12T03:39:00.344Z,7.90
2018-08-12T03:41:29.340Z,10.17
2018-08-12T03:43:57.723Z,7.43
2018-08-12T03:46:26.156Z,12.33
2018-08-12T03:48:54.602Z,11.27
2018-08-12T03:51:22.927Z,11.50
2018-08-12T03:53:51.345Z,10.83
2018-08-12T03:56:19.805Z,8.77
2018-08-12T03:58:48.221Z,6.80
2018-08-12T04:01:16.581Z,7.67
2018-08-12T04:03:45.010Z,5.90
2018-08-12T04:06:13.359Z,8.97
2018-08-12T04:08:41.741Z,5.23
2018-08-12T04:11:10.175Z,5.33
2018-08-12T04:13:38.602Z,8.00
2018-08-12T04:16:06.996Z,7.70
2018-08-12T04:18:35.379Z,4.27
2018-08-12T04:21:03.730Z,7.23
2018-08-12T04:23:32.278Z,7.80
2018-08-12T04:26:00.645Z,9.13
2018-08-12T04:28:29.026Z,5.93
2018-08-12T04:30:57.415Z,5.67
2018-08-12T04:33:25.845Z,6.10
2018-08-12T04:35:54.215Z,5.00
2018-08-12T04:38:22.640Z,4.13
2018-08-12T04:40:51.045Z,5.80
2018-08-12T04:43:19.441Z,4.97
2018-08-12T04:45:47.833Z,6.37
2018-08-12T04:48:16.289Z,4.93
2018-08-12T04:50:44.642Z,3.87
2018-08-12T04:53:13.049Z,4.07
2018-08-12T04:55:41.566Z,6.50
2018-08-12T04:58:09.984Z,4.90
2018-08-12T05:00:38.414Z,6.60
2018-08-12T05:03:06.828Z,5.20
2018-08-12T05:05:35.231Z,4.27
2018-08-12T05:08:03.628Z,4.07
2018-08-12T05:10:32.109Z,4.77
2018-08-12T05:13:00.509Z,4.00
2018-08-12T05:15:28.969Z,5.93
2018-08-12T05:17:57.422Z,3.57
2018-08-12T05:20:25.786Z,7.60
2018-08-12T05:22:54.167Z,5.90
2018-08-12T05:25:22.528Z,4.10
2018-08-12T05:27:52.064Z,3.67
2018-08-12T05:30:20.428Z,4.10
2018-08-12T05:32:48.852Z,5.47
2018-08-12T05:35:17.242Z,5.97
2018-08-12T05:37:45.645Z,7.10
2018-08-12T05:40:14.065Z,5.00
2018-08-12T05:42:42.411Z,4.13
2018-08-12T05:45:11.086Z,3.63
2018-08-12T05:47:40.580Z,5.03
2018-08-12T05:50:10.095Z,4.40
2018-08-12T05:52:38.517Z,4.63
2018-08-12T05:55:07.620Z,4.80
2018-08-12T05:57:36.050Z,3.90
2018-08-12T06:00:05.160Z,5.43
2018-08-12T06:02:33.538Z,3.60
2018-08-12T06:05:01.924Z,5.17
2018-08-12T06:07:30.249Z,5.22
2018-08-12T06:09:58.588Z,5.28
2018-08-12T06:12:26.942Z,4.10
2018-08-12T06:14:55.410Z,3.83
2018-08-12T06:17:23.969Z,3.97
2018-08-12T06:19:53.090Z,2.80
2018-08-12T06:22:21.463Z,3.33
2018-08-12T06:24:50.232Z,6.20
2018-08-12T06:27:19.151Z,8.35
2018-08-12T06:29:48.010Z,3.90
2018-08-12T06:32:16.622Z,4.00
2018-08-12T06:34:45.629Z,7.15
2018-08-12T06:37:14.131Z,3.65
2018-08-12T06:39:42.537Z,4.15
2018-08-12T06:42:10.909Z,4.33
2018-08-12T06:44:39.432Z,4.97
2018-08-12T06:47:07.787Z,5.90
2018-08-12T06:49:36.200Z,3.52
2018-08-12T06:52:04.778Z,3.72
2018-08-12T06:54:33.144Z,4.95
2018-08-12T06:57:01.541Z,3.30
2018-08-12T06:59:29.980Z,4.58
2018-08-12T07:01:58.371Z,4.28
2018-08-12T07:04:27.389Z,5.08
2018-08-12T07:06:55.885Z,4.85
2018-08-12T07:09:24.505Z,4.62
2018-08-12T07:11:52.875Z,5.70
2018-08-12T07:14:21.341Z,4.05
2018-08-12T07:16:49.739Z,3.30
2018-08-12T07:19:18.154Z,4.75
2018-08-12T07:21:47.590Z,4.92
2018-08-12T07:24:16.074Z,8.55
2018-08-12T07:26:44.508Z,9.40
2018-08-12T07:29:12.933Z,7.20
2018-08-12T07:31:41.946Z,5.33
2018-08-12T07:34:10.418Z,11.20
2018-08-12T07:36:38.835Z,8.93
2018-08-12T07:39:08.328Z,14.40
2018-08-12T07:41:37.074Z,12.70
2018-08-12T07:44:05.830Z,11.83
2018-08-12T07:46:40.910Z,13.45
2018-08-12T07:49:09.713Z,13.38
2018-08-12T07:51:40.464Z,12.55
2018-08-12T07:54:15.926Z,11.57
2018-08-12T07:56:45.028Z,12.47
2018-08-12T07:59:13.436Z,12.35
2018-08-12T08:01:41.856Z,13.05
2018-08-12T08:04:10.247Z,9.75
2018-08-12T08:06:38.793Z,13.45
2018-08-12T08:09:09.330Z,10.23
2018-08-12T08:11:37.912Z,9.33
2018-08-12T08:14:06.625Z,12.88
2018-08-12T08:16:35.010Z,11.48
2018-08-12T08:19:03.548Z,9.35
2018-08-12T08:21:31.942Z,7.87
2018-08-12T08:24:00.422Z,7.83
2018-08-12T08:26:28.992Z,8.95
2018-08-12T08:28:57.446Z,9.55
2018-08-12T08:31:25.918Z,6.70
2018-08-12T08:33:54.292Z,7.10
2018-08-12T08:36:23.084Z,8.73
2018-08-12T08:38:51.543Z,8.03
2018-08-12T08:41:20.081Z,7.47
2018-08-12T08:43:48.476Z,6.65
2018-08-12T08:46:16.911Z,7.08
2018-08-12T08:48:45.340Z,6.62
2018-08-12T08:51:13.839Z,7.40
2018-08-12T08:53:42.211Z,6.22
2018-08-12T08:56:11.592Z,6.35
2018-08-12T08:58:40.059Z,4.70
2018-08-12T09:01:08.508Z,5.72
2018-08-12T09:03:43.668Z,4.75
2018-08-12T09:06:12.158Z,4.08
2018-08-12T09:08:40.771Z,5.47
2018-08-12T09:11:09.014Z,7.05
2018-08-12T09:13:37.493Z,3.67
2018-08-12T09:16:06.120Z,5.12
2018-08-12T09:18:34.515Z,4.05
2018-08-12T09:21:02.901Z,3.83
2018-08-12T09:23:31.276Z,4.05
2018-08-12T09:25:59.641Z,2.77
2018-08-12T09:28:28.032Z,2.75
2018-08-12T09:30:56.438Z,2.25
2018-08-12T09:33:24.861Z,3.12
2018-08-12T09:35:53.263Z,2.95
2018-08-12T09:38:21.621Z,2.25
2018-08-12T09:40:50.024Z,4.25
2018-08-12T09:43:18.473Z,3.22
2018-08-12T09:45:46.902Z,2.15
2018-08-12T09:48:15.458Z,2.58
2018-08-12T09:50:43.870Z,1.77
2018-08-12T09:53:12.362Z,2.80
2018-08-12T09:55:40.746Z,2.60
2018-08-12T09:58:09.197Z,3.85
2018-08-12T10:00:38.615Z,4.03
2018-08-12T10:03:07.945Z,1.72
2018-08-12T10:05:36.580Z,2.33
2018-08-12T10:08:05.078Z,3.35
2018-08-12T10:10:33.534Z,2.35
2018-08-12T10:13:02.002Z,2.15
2018-08-12T10:15:30.608Z,5.95
2018-08-12T10:20:45.810Z,2.98
2018-08-12T10:23:14.199Z,1.75
2018-08-12T10:25:42.765Z,2.27
2018-08-12T10:28:11.152Z,3.17
2018-08-12T10:30:39.605Z,2.00
2018-08-12T10:33:07.996Z,1.90
2018-08-12T10:35:36.395Z,1.67
2018-08-12T10:38:05.113Z,2.45
2018-08-12T10:40:33.535Z,1.42
2018-08-12T10:43:02.047Z,2.65
2018-08-12T10:45:30.455Z,1.85
2018-08-12T10:47:59.001Z,1.40
2018-08-12T10:50:27.537Z,2.62
2018-08-12T10:52:55.961Z,2.80
2018-08-12T10:55:24.806Z,1.40
2018-08-12T10:57:53.283Z,1.85
2018-08-12T11:00:27.932Z,2.65
2018-08-12T11:02:56.998Z,1.17
2018-08-12T11:05:26.150Z,1.40
2018-08-12T11:07:55.905Z,1.22
2018-08-12T11:10:24.730Z,1.40
2018-08-12T11:12:53.314Z,1.82
2018-08-12T11:15:21.996Z,1.22
2018-08-12T11:17:50.405Z,3.90
2018-08-12T11:20:18.826Z,2.70
2018-08-12T11:22:47.268Z,1.32
2018-08-12T11:25:15.715Z,0.95
2018-08-12T11:27:44.130Z,1.45
2018-08-12T11:30:15.803Z,1.30
2018-08-12T11:32:44.228Z,2.02
2018-08-12T11:35:14.579Z,1.98
2018-08-12T11:37:43.717Z,1.02
2018-08-12T11:40:13.189Z,1.50
2018-08-12T11:42:41.680Z,1.10
2018-08-12T11:45:12.877Z,1.52
2018-08-12T11:47:42.567Z,1.67
2018-08-12T11:50:13.411Z,1.50
2018-08-12T11:52:43.130Z,1.02
2018-08-12T11:55:14.576Z,1.30
2018-08-12T11:57:46.724Z,1.02
2018-08-12T12:00:18.563Z,1.42
2018-08-12T12:02:48.714Z,1.55
2018-08-12T12:05:17.337Z,1.27
2018-08-12T12:07:46.055Z,1.80
2018-08-12T12:10:20.773Z,1.00
2018-08-12T12:12:50.198Z,1.07
2018-08-12T12:15:18.990Z,1.27
2018-08-12T12:17:47.834Z,1.77
2018-08-12T12:20:17.174Z,1.10
2018-08-12T12:22:46.328Z,6.80
2018-08-12T12:25:17.131Z,6.90
2018-08-12T12:27:46.397Z,2.10
2018-08-12T12:30:17.937Z,2.05
2018-08-12T12:32:47.002Z,1.27
2018-08-12T12:35:15.458Z,0.80
2018-08-12T12:37:44.451Z,1.30
2018-08-12T12:40:14.834Z,0.93
2018-08-12T12:42:43.558Z,1.30
2018-08-12T12:45:12.987Z,0.90
2018-08-12T12:47:41.964Z,1.32
2018-08-12T12:50:16.591Z,0.85
2018-08-12T12:52:45.388Z,0.82
2018-08-12T12:55:13.787Z,1.92
2018-08-12T12:57:42.897Z,2.05
2018-08-12T13:00:13.685Z,0.93
2018-08-12T13:02:42.097Z,0.82
2018-08-12T13:05:12.605Z,1.40
2018-08-12T13:07:41.370Z,1.77
2018-08-12T13:10:10.843Z,3.20
2018-08-12T13:12:40.308Z,0.80
2018-08-12T13:15:09.863Z,0.85
2018-08-12T13:17:38.676Z,1.20
2018-08-12T13:20:09.991Z,0.80
2018-08-12T13:22:38.364Z,1.47
2018-08-12T13:25:10.630Z,1.95
2018-08-12T13:27:39.234Z,1.10
2018-08-12T13:30:08.692Z,1.30
2018-08-12T13:32:37.387Z,1.70
2018-08-12T13:35:06.501Z,1.50
2018-08-12T13:37:35.489Z,1.55
2018-08-12T13:40:04.971Z,0.88
2018-08-12T13:42:33.478Z,1.10
2018-08-12T13:45:02.119Z,1.40
2018-08-12T13:47:30.485Z,0.88
2018-08-12T13:49:58.933Z,1.70
2018-08-12T13:52:27.292Z,0.80
2018-08-12T13:54:55.749Z,0.93
2018-08-12T13:57:24.129Z,1.20
2018-08-12T13:59:52.557Z,0.82
2018-08-12T14:02:20.924Z,0.78
2018-08-12T14:04:49.328Z,1.00
2018-08-12T14:07:17.705Z,1.17
2018-08-12T14:09:46.144Z,1.35
2018-08-12T14:12:14.593Z,2.47
2018-08-12T14:14:42.997Z,1.85
2018-08-12T14:17:11.424Z,0.80
2018-08-12T14:19:39.869Z,1.67
2018-08-12T14:22:08.317Z,1.77
2018-08-12T14:24:36.731Z,1.20
2018-08-12T14:27:05.238Z,1.32
2018-08-12T14:29:33.712Z,0.82
2018-08-12T14:32:02.071Z,1.35
2018-08-12T14:34:30.473Z,1.05
2018-08-12T14:36:58.957Z,0.90
2018-08-12T14:39:27.553Z,0.88
2018-08-12T14:41:56.022Z,1.30
2018-08-12T14:44:24.417Z,0.95
2018-08-12T14:46:52.775Z,0.93
2018-08-12T14:49:21.207Z,0.80
2018-08-12T14:51:49.674Z,1.10
2018-08-12T14:54:18.157Z,0.95
2018-08-12T14:56:46.730Z,1.05
2018-08-12T14:59:15.069Z,0.85
2018-08-12T15:01:43.519Z,0.90
2018-08-12T15:04:11.906Z,0.85
2018-08-12T15:06:40.350Z,0.90
2018-08-12T15:09:10.823Z,0.85
2018-08-12T15:11:39.225Z,1.10
2018-08-12T15:14:07.631Z,1.37
2018-08-12T15:16:36.107Z,0.70
2018-08-12T15:19:04.548Z,1.10
2018-08-12T15:21:33.785Z,0.80
2018-08-12T15:24:02.307Z,1.10
2018-08-12T15:26:30.878Z,1.67
2018-08-12T15:28:59.224Z,1.85
2018-08-12T15:31:27.579Z,1.85
2018-08-12T15:33:55.933Z,0.80
2018-08-12T15:36:24.411Z,1.35
2018-08-12T15:38:52.778Z,1.77
2018-08-12T15:41:21.145Z,2.87
2018-08-12T15:43:49.493Z,1.70
2018-08-12T15:46:17.883Z,1.00
2018-08-12T15:48:46.382Z,1.92
2018-08-12T15:51:15.037Z,1.12
2018-08-12T15:53:43.306Z,1.00
2018-08-12T15:56:11.959Z,1.00
2018-08-12T15:58:40.419Z,1.40
2018-08-12T16:01:08.961Z,1.27
2018-08-12T16:03:37.897Z,1.10
2018-08-12T16:06:06.805Z,1.00
2018-08-12T16:08:35.315Z,0.90
2018-08-12T16:11:03.738Z,1.10
2018-08-12T16:13:32.122Z,0.90
2018-08-12T16:16:20.629Z,1.00
2018-08-12T16:18:55.822Z,0.95
2018-08-12T16:21:30.614Z,1.42
2018-08-12T16:23:59.316Z,1.20
2018-08-12T16:26:27.822Z,1.70
2018-08-12T16:28:56.213Z,1.55
2018-08-12T16:31:24.635Z,0.98
2018-08-12T16:33:54.116Z,1.22
2018-08-12T16:36:22.515Z,0.88
2018-08-12T16:38:50.997Z,1.40
2018-08-12T16:41:19.523Z,1.80
2018-08-12T16:43:48.081Z,0.80
2018-08-12T16:46:16.535Z,1.05
2018-08-12T16:48:45.166Z,1.62
2018-08-12T16:51:13.585Z,1.17
2018-08-12T16:53:41.986Z,0.90
2018-08-12T16:56:10.478Z,0.90
2018-08-12T16:58:38.927Z,0.98
2018-08-12T17:01:07.590Z,1.50
2018-08-12T17:03:36.010Z,0.90
2018-08-12T17:06:04.557Z,1.87
2018-08-12T17:08:33.144Z,1.10
2018-08-12T17:11:01.554Z,0.80
2018-08-12T17:13:29.994Z,1.25
2018-08-12T17:15:58.435Z,0.95
2018-08-12T17:18:26.879Z,1.30
2018-08-12T17:20:55.255Z,1.27
2018-08-12T17:23:23.760Z,1.62
2018-08-12T17:25:52.179Z,1.80
2018-08-12T17:28:20.698Z,1.42
2018-08-12T17:30:49.050Z,1.70
2018-08-12T17:33:17.475Z,1.72
2018-08-12T17:38:29.410Z,1.80
2018-08-12T17:41:01.541Z,1.60
2018-08-12T17:43:30.018Z,2.80
2018-08-12T17:45:58.821Z,1.72
2018-08-12T17:48:31.728Z,3.85
2018-08-12T17:51:00.300Z,2.17
2018-08-12T17:53:28.799Z,2.50
2018-08-12T17:55:57.197Z,1.77
2018-08-12T17:58:25.683Z,3.30
2018-08-12T18:00:54.224Z,1.40
2018-08-12T18:03:22.642Z,3.22
2018-08-12T18:05:52.195Z,2.00
2018-08-12T18:08:20.593Z,3.12
2018-08-12T18:10:48.989Z,1.70
2018-08-12T18:13:17.481Z,1.90
2018-08-12T18:15:45.912Z,2.62
2018-08-12T18:18:14.345Z,2.80
2018-08-12T18:20:42.818Z,1.62
2018-08-12T18:23:11.229Z,1.70
2018-08-12T18:25:39.700Z,1.87
2018-08-12T18:28:08.197Z,2.45
2018-08-12T18:30:36.701Z,6.25
2018-08-12T18:33:05.208Z,4.53
2018-08-12T18:35:33.676Z,2.87
2018-08-12T18:38:02.202Z,4.12
2018-08-12T18:40:30.696Z,5.28
2018-08-12T18:42:59.159Z,3.30
2018-08-12T18:45:27.597Z,3.95
2018-08-12T18:47:56.048Z,2.47
2018-08-12T18:50:24.570Z,3.70
2018-08-12T18:52:53.006Z,3.17
2018-08-12T18:55:21.508Z,2.80
2018-08-12T18:57:49.978Z,3.17
2018-08-12T19:00:18.430Z,3.15
2018-08-12T19:02:46.957Z,2.87
2018-08-12T19:05:16.484Z,4.28
2018-08-12T19:07:45.360Z,3.47
2018-08-12T19:10:13.752Z,5.62
2018-08-12T19:12:43.077Z,4.83
2018-08-12T19:15:12.280Z,3.42
2018-08-12T19:17:41.049Z,3.83
2018-08-12T19:20:10.557Z,3.92
2018-08-12T19:22:39.647Z,4.72
2018-08-12T19:25:08.969Z,3.58
2018-08-12T19:27:38.623Z,3.72
2018-08-12T19:30:09.491Z,3.98
2018-08-12T19:32:38.336Z,6.17
2018-08-12T19:35:06.801Z,5.55
2018-08-12T19:37:35.235Z,9.60
2018-08-12T19:40:04.004Z,5.17
2018-08-12T19:42:32.505Z,4.53
2018-08-12T19:45:00.913Z,3.83
2018-08-12T19:47:30.413Z,3.40
2018-08-12T19:49:58.882Z,3.62
2018-08-12T19:52:28.245Z,3.33
2018-08-12T19:54:56.785Z,3.65
2018-08-12T19:57:25.105Z,3.67
2018-08-12T19:59:53.510Z,3.75
2018-08-12T20:02:21.874Z,3.10
2018-08-12T20:04:51.448Z,3.37
2018-08-12T20:07:20.014Z,3.37
2018-08-12T20:09:48.477Z,3.37
2018-08-12T20:12:17.347Z,3.90
2018-08-12T20:14:45.814Z,3.25
2018-08-12T20:17:14.346Z,5.30
2018-08-12T20:19:42.838Z,4.83
2018-08-12T20:22:13.205Z,5.60
2018-08-12T20:24:41.970Z,5.97
2018-08-12T20:27:10.971Z,4.95
2018-08-12T20:29:39.402Z,5.08
2018-08-12T20:32:08.552Z,5.45
2018-08-12T20:34:37.137Z,4.10
2018-08-12T20:37:05.813Z,5.90
2018-08-12T20:39:34.275Z,3.05
2018-08-12T20:42:02.675Z,5.10
2018-08-12T20:44:31.227Z,3.22
2018-08-12T20:46:59.817Z,3.90
2018-08-12T20:49:28.562Z,4.22
2018-08-12T20:51:57.128Z,5.00
2018-08-12T20:54:25.787Z,4.25
2018-08-12T20:56:54.340Z,3.98
2018-08-12T20:59:22.900Z,2.72
2018-08-12T21:01:51.315Z,3.02
2018-08-12T21:04:19.694Z,4.03
2018-08-12T21:06:48.259Z,3.10
2018-08-12T21:09:16.625Z,3.40
2018-08-12T21:11:45.188Z,3.17
2018-08-12T21:14:13.545Z,3.83
2018-08-12T21:16:42.349Z,2.98
2018-08-12T21:19:11.189Z,9.50
2018-08-12T21:21:39.573Z,9.93
2018-08-12T21:24:08.739Z,8.93
2018-08-12T21:26:37.181Z,13.80
2018-08-12T21:29:05.636Z,13.72
2018-08-12T21:31:34.033Z,11.35
2018-08-12T21:34:02.458Z,10.35
2018-08-12T21:36:30.858Z,17.62
2018-08-12T21:39:00.606Z,11.97
2018-08-12T21:41:29.098Z,8.33
2018-08-12T21:43:57.457Z,4.80
2018-08-12T21:46:26.055Z,4.92
2018-08-12T21:48:54.610Z,4.95
2018-08-12T21:51:23.163Z,4.15
2018-08-12T21:53:52.177Z,2.80
2018-08-12T21:56:20.575Z,3.08
2018-08-12T21:58:48.965Z,4.78
2018-08-12T22:01:17.333Z,5.35
2018-08-12T22:03:46.817Z,4.53
2018-08-12T22:06:15.271Z,4.95
2018-08-12T22:08:43.688Z,3.60
2018-08-12T22:11:12.169Z,3.37
2018-08-12T22:13:40.688Z,4.15
2018-08-12T22:16:09.069Z,4.85
2018-08-12T22:18:37.477Z,3.40
2018-08-12T22:21:06.032Z,3.70
2018-08-12T22:23:34.882Z,3.67
2018-08-12T22:26:03.262Z,5.08
2018-08-12T22:28:31.638Z,6.35
2018-08-12T22:31:00.037Z,3.45
2018-08-12T22:33:28.625Z,3.65
2018-08-12T22:35:57.011Z,4.47
2018-08-12T22:38:25.520Z,3.55
2018-08-12T22:40:54.202Z,4.15
2018-08-12T22:43:22.708Z,8.50
2018-08-12T22:45:51.254Z,3.50
2018-08-12T22:48:19.734Z,4.05
2018-08-12T22:50:48.164Z,4.10
2018-08-12T22:53:16.596Z,4.75
2018-08-12T22:55:45.071Z,4.37
2018-08-12T22:58:13.481Z,3.65
2018-08-12T23:00:45.238Z,4.03
2018-08-12T23:03:13.981Z,11.93
2018-08-12T23:05:42.601Z,9.08
2018-08-12T23:08:11.568Z,4.62
2018-08-12T23:10:40.750Z,5.12
2018-08-12T23:13:09.248Z,6.67
2018-08-12T23:16:29.608Z,4.58
2018-08-12T23:18:58.087Z,3.45
2018-08-12T23:21:26.440Z,4.55
2018-08-12T23:23:55.015Z,4.35
2018-08-12T23:26:24.349Z,7.95
2018-08-12T23:28:52.839Z,4.30
2018-08-12T23:31:21.197Z,3.62
2018-08-12T23:33:50.777Z,4.53
2018-08-12T23:36:19.157Z,3.62
2018-08-12T23:38:47.542Z,4.70
2018-08-12T23:41:15.910Z,3.52
2018-08-12T23:43:44.937Z,4.22
2018-08-12T23:46:13.405Z,3.37
2018-08-12T23:48:41.813Z,3.98
2018-08-12T23:51:10.273Z,3.22
2018-08-12T23:53:38.741Z,3.83
2018-08-12T23:56:07.570Z,3.52
2018-08-12T23:58:36.753Z,4.33
